Terminal Aerodrome Forecast
Issued by NWS Bismarck, ND

Home | Current Version | Previous Version | Text Only | Print | Product List | Glossary On
Versions: 1 2 3 4 5 6 7 8 9 10 11 12 13 14 15 16 17 18 19 20 21
000
FTUS43 KBIS 201700
TAFBIS
TAF
KBIS 201720Z 2018/2118 08005KT P6SM FEW005 BKN070 OVC100
      TEMPO 2018/2020 20005KT P6SM OVC080
     FM202000 21006KT P6SM VCSH SCT050 BKN070
     FM202200 21005KT P6SM FEW060 SCT300
     FM210300 20005KT P6SM FEW300
     FM211400 15008KT P6SM SCT090 BKN120=

USA.gov is the U.S. government's official web portal to all federal, state and local government web resources and services.